This is the latest recevied weather packets stored in our database for station/object VE7OTD. If no packets are shown the sender has not sent any weather packets the latest 10 day(s).
| Time | Temp. | Humidity | Pressure | Rain* | Wind** | Luminosity | Snow |
|---|---|---|---|---|---|---|---|
| 1787917717 | 12.78° C | 99% | 1015.9 hPa | 0 mm | - | - | - |
| 1787915886 | 12.78° C | 99% | 1016.2 hPa | 0 mm | - | - | - |
| 1787914071 | 12.78° C | 99% | 1016.3 hPa | 0 mm | - | - | - |
| 1787912255 | 12.78° C | 99% | 1016.4 hPa | 0 mm | - | - | - |
| 1787910441 | 12.78° C | 99% | 1016.2 hPa | 0 mm | - | - | - |
| 1787908607 | 12.78° C | 99% | 1016.4 hPa | 0 mm | - | - | - |
| 1787906768 | 13.33° C | 99% | 1016.4 hPa | 0 mm | - | - | - |
| 1787904953 | 13.33° C | 99% | 1016.3 hPa | 0 mm | - | - | - |
| 1787903114 | 13.89° C | 99% | 1016.3 hPa | 0 mm | - | - | - |
| 1787901299 | 13.33° C | 99% | 1016.2 hPa | 0 mm | - | - | - |
| 1787899483 | 13.33° C | 99% | 1016.1 hPa | 0 mm | - | - | - |
| 1787897669 | 13.89° C | 99% | 1015.9 hPa | 0 mm | - | - | - |
| 1787895839 | 14.44° C | 98% | 1015.9 hPa | 0 mm | - | - | - |
| 1787894024 | 15° C | 96% | 1015.8 hPa | 0 mm | - | - | - |
| 1787892223 | 15.56° C | 93% | 1015.7 hPa | 0 mm | - | - | - |
| 1787890392 | 16.67° C | 91% | 1015.4 hPa | 0.25 mm | - | - | - |
| 1787888577 | 16.67° C | 88% | 1015.1 hPa | 0.25 mm | - | - | - |
| 1787886763 | 17.78° C | 85% | 1014.6 hPa | 0 mm | - | - | - |
| 1787884947 | 18.89° C | 80% | 1014.5 hPa | 0 mm | - | - | - |
| 1787883132 | 19.44° C | 73% | 1014.2 hPa | 0 mm | - | - | - |
| 1787881317 | 18.89° C | 76% | 1014.3 hPa | 0 mm | - | - | - |
| 1787879517 | 18.89° C | 76% | 1014.2 hPa | 0 mm | - | - | - |
| 1787877687 | - | - | 1014 hPa | 0 mm | - | - | - |
| 1787875887 | 18.89° C | 78% | 1013.8 hPa | 0 mm | - | - | - |
| 1787874087 | 18.89° C | 80% | 1013.9 hPa | 0 mm | - | - | - |
* Rain latest hour (hover to see other rain measurements)
** Current wind speed in m/s (hover to see current wind gust speed)